Time;durP1;ratioP1;P1;durP2;ratioP2;P2;SDS_P1;SDS_P2;PMS_P1;PMS_P2;Temp;Humidity;BMP_temperature;BMP_pressure;BME280_temperature;BME280_humidity;BME280_pressure;Samples;Min_cycle;Max_cycle;Signal;HPM_P1;HPM_P2
2022/04/02 00:01:13;;;;;;;14.33;6.07;;;;;;;;;;4451988;32;20242;-56
2022/04/02 00:03:40;;;;;;;11.20;6.43;;;;;;;;;;4455946;32;20228;-56
2022/04/02 00:06:05;;;;;;;11.80;6.07;;;;;;;;;;4452098;32;20279;-56
2022/04/02 00:08:31;;;;;;;16.07;6.53;;;;;;;;;;4458213;32;20337;-57
2022/04/02 00:10:57;;;;;;;11.47;6.57;;;;;;;;;;4453412;32;20323;-56
2022/04/02 00:13:23;;;;;;;10.60;5.73;;;;;;;;;;4446090;32;20232;-56
2022/04/02 00:15:49;;;;;;;11.23;5.20;;;;;;;;;;4444685;32;20357;-56
2022/04/02 00:18:14;;;;;;;8.00;3.80;;;;;;;;;;4451681;32;20236;-56
2022/04/02 00:20:40;;;;;;;11.87;3.93;;;;;;;;;;4446794;32;20471;-58
2022/04/02 00:25:50;;;;;;;7.93;4.47;;;;;;;;;;4453259;32;20251;-56
2022/04/02 00:28:15;;;;;;;7.33;4.60;;;;;;;;;;4431404;32;20339;-56
2022/04/02 00:30:41;;;;;;;10.97;5.10;;;;;;;;;;4444613;32;20347;-57
2022/04/02 00:33:06;;;;;;;5.87;3.57;;;;;;;;;;4452789;32;20224;-56
2022/04/02 00:35:32;;;;;;;6.83;3.67;;;;;;;;;;4446983;32;20301;-58
2022/04/02 00:37:57;;;;;;;8.83;4.50;;;;;;;;;;4455146;32;20255;-57
2022/04/02 00:40:23;;;;;;;7.70;4.23;;;;;;;;;;4453083;32;20325;-56
2022/04/02 00:42:48;;;;;;;7.97;5.03;;;;;;;;;;4447844;32;20255;-57
2022/04/02 00:45:14;;;;;;;11.40;4.47;;;;;;;;;;4453342;32;20287;-56
2022/04/02 00:47:39;;;;;;;5.83;3.47;;;;;;;;;;4454084;32;20251;-57
2022/04/02 00:50:05;;;;;;;7.03;4.00;;;;;;;;;;4454821;32;20554;-56
2022/04/02 00:52:31;;;;;;;12.83;4.93;;;;;;;;;;4460429;32;20300;-56
2022/04/02 00:54:56;;;;;;;7.53;5.07;;;;;;;;;;4451573;32;20319;-56
2022/04/02 00:57:24;;;;;;;15.93;6.17;;;;;;;;;;4456289;32;20200;-57
2022/04/02 00:59:50;;;;;;;10.97;5.23;;;;;;;;;;4454297;32;20589;-57
2022/04/02 01:02:15;;;;;;;8.90;5.20;;;;;;;;;;4455242;32;20327;-57
2022/04/02 01:04:41;;;;;;;7.77;4.83;;;;;;;;;;4453597;32;20694;-56
2022/04/02 01:07:07;;;;;;;11.63;5.80;;;;;;;;;;4448020;32;20635;-57
2022/04/02 01:09:32;;;;;;;9.30;4.87;;;;;;;;;;4453793;32;20303;-57
2022/04/02 01:11:58;;;;;;;16.43;6.53;;;;;;;;;;4447425;32;20209;-57
2022/04/02 01:14:23;;;;;;;11.97;5.57;;;;;;;;;;4445451;32;20322;-56
2022/04/02 01:16:49;;;;;;;12.80;5.93;;;;;;;;;;4445977;32;20209;-57
2022/04/02 01:19:15;;;;;;;17.20;9.40;;;;;;;;;;4444932;32;20268;-56
2022/04/02 01:21:47;;;;;;;18.83;8.17;;;;;;;;;;4459117;32;20330;-56
2022/04/02 01:24:13;;;;;;;11.30;5.10;;;;;;;;;;4444785;32;20227;-56
2022/04/02 01:26:38;;;;;;;6.07;4.07;;;;;;;;;;4451313;32;20552;-57
2022/04/02 01:29:04;;;;;;;8.17;3.33;;;;;;;;;;4450217;32;20750;-57
2022/04/02 01:31:30;;;;;;;5.07;3.47;;;;;;;;;;4451464;32;20514;-57
2022/04/02 01:33:56;;;;;;;5.73;3.07;;;;;;;;;;4447914;32;20337;-56
2022/04/02 01:36:22;;;;;;;8.17;3.23;;;;;;;;;;4459462;32;20691;-57
2022/04/02 01:38:48;;;;;;;9.97;3.87;;;;;;;;;;4444048;32;20601;-56
2022/04/02 01:41:15;;;;;;;10.77;3.77;;;;;;;;;;4457190;32;20283;-58
2022/04/02 01:43:41;;;;;;;7.87;4.77;;;;;;;;;;4444058;32;20262;-56
2022/04/02 01:46:07;;;;;;;8.20;3.67;;;;;;;;;;4430797;32;20354;-57
2022/04/02 01:48:33;;;;;;;10.83;4.27;;;;;;;;;;4449826;32;20374;-56
2022/04/02 01:50:59;;;;;;;9.30;4.00;;;;;;;;;;4449885;32;20401;-57
2022/04/02 01:53:25;;;;;;;6.60;3.23;;;;;;;;;;4452702;32;20714;-56
2022/04/02 01:55:52;;;;;;;7.47;3.40;;;;;;;;;;4460222;32;21060;-56
2022/04/02 01:58:17;;;;;;;8.07;3.30;;;;;;;;;;4457982;32;20291;-56
2022/04/02 02:00:44;;;;;;;5.77;2.90;;;;;;;;;;4458752;32;20280;-57
2022/04/02 02:03:10;;;;;;;7.63;3.40;;;;;;;;;;4457286;32;20665;-57
2022/04/02 02:05:36;;;;;;;5.27;3.00;;;;;;;;;;4456602;32;20326;-58
2022/04/02 02:08:02;;;;;;;4.17;2.50;;;;;;;;;;4454034;32;20224;-57
2022/04/02 02:10:28;;;;;;;4.90;2.40;;;;;;;;;;4454520;32;20645;-57
2022/04/02 02:12:54;;;;;;;5.17;2.97;;;;;;;;;;4452897;32;20325;-57
2022/04/02 02:15:19;;;;;;;3.50;2.80;;;;;;;;;;4459571;32;20264;-57
2022/04/02 02:17:48;;;;;;;8.30;4.97;;;;;;;;;;4457240;32;20212;-57
2022/04/02 02:20:16;;;;;;;12.40;4.20;;;;;;;;;;4458775;32;20747;-57
2022/04/02 02:22:42;;;;;;;11.23;2.63;;;;;;;;;;4448281;32;20333;-57
2022/04/02 02:25:11;;;;;;;13.43;3.43;;;;;;;;;;4448765;32;20268;-57
2022/04/02 02:27:37;;;;;;;5.47;2.17;;;;;;;;;;4460802;32;20700;-57
2022/04/02 02:30:04;;;;;;;2.70;2.17;;;;;;;;;;4456065;32;20279;-57
2022/04/02 02:32:35;;;;;;;5.67;3.33;;;;;;;;;;4458735;32;20281;-57
2022/04/02 02:37:45;;;;;;;9.30;5.10;;;;;;;;;;4448761;32;20238;-56
2022/04/02 02:40:12;;;;;;;6.67;4.40;;;;;;;;;;4461708;32;20726;-57
2022/04/02 02:42:38;;;;;;;4.00;3.13;;;;;;;;;;4456213;32;20612;-58
2022/04/02 02:45:04;;;;;;;10.97;3.20;;;;;;;;;;4453230;32;20363;-56
2022/04/02 02:47:30;;;;;;;8.43;2.90;;;;;;;;;;4453025;32;20270;-56
2022/04/02 02:49:56;;;;;;;5.50;2.83;;;;;;;;;;4458005;32;20943;-56
2022/04/02 02:52:21;;;;;;;5.60;2.77;;;;;;;;;;4452732;32;20397;-56
2022/04/02 02:54:47;;;;;;;4.50;2.40;;;;;;;;;;4448272;32;20724;-57
2022/04/02 02:57:12;;;;;;;5.07;3.83;;;;;;;;;;4449833;32;20254;-56
2022/04/02 02:59:38;;;;;;;7.93;5.17;;;;;;;;;;4456047;32;20783;-56
2022/04/02 03:02:04;;;;;;;8.77;4.13;;;;;;;;;;4456285;32;20318;-57
2022/04/02 03:04:30;;;;;;;9.60;5.67;;;;;;;;;;4456944;32;20739;-57
2022/04/02 03:06:56;;;;;;;5.43;3.20;;;;;;;;;;4457126;32;20338;-57
2022/04/02 03:09:22;;;;;;;8.77;4.30;;;;;;;;;;4451942;32;20216;-56
2022/04/02 03:11:47;;;;;;;4.93;3.20;;;;;;;;;;4456809;32;20208;-56
2022/04/02 03:14:13;;;;;;;4.67;2.70;;;;;;;;;;4458115;32;20253;-57
2022/04/02 03:16:38;;;;;;;5.60;3.13;;;;;;;;;;4460278;32;20234;-57
2022/04/02 03:19:06;;;;;;;10.47;5.07;;;;;;;;;;4451942;32;20382;-57
2022/04/02 03:21:32;;;;;;;6.40;3.67;;;;;;;;;;4451749;32;20771;-56
2022/04/02 03:23:57;;;;;;;5.63;3.53;;;;;;;;;;4454210;32;20224;-57
2022/04/02 03:26:26;;;;;;;10.00;4.77;;;;;;;;;;4453682;32;20240;-57
2022/04/02 03:28:52;;;;;;;6.63;3.50;;;;;;;;;;4450492;32;20378;-56
2022/04/02 03:31:17;;;;;;;26.67;9.50;;;;;;;;;;4455866;32;20224;-57
2022/04/02 03:33:43;;;;;;;11.90;7.30;;;;;;;;;;4448372;32;20258;-57
2022/04/02 03:36:10;;;;;;;7.97;4.83;;;;;;;;;;4449653;32;20280;-57
2022/04/02 03:38:37;;;;;;;10.43;4.07;;;;;;;;;;4453384;32;20236;-58
2022/04/02 03:41:04;;;;;;;7.50;3.17;;;;;;;;;;4452348;32;20223;-56
2022/04/02 03:43:30;;;;;;;4.33;2.87;;;;;;;;;;4451024;32;20260;-57
2022/04/02 03:47:08;;;;;;;5.90;3.40;;;;;;;;;;4450503;32;20331;-56
2022/04/02 03:48:42;;;;;;;6.53;4.20;;;;;;;;;;4452990;32;20335;-56
2022/04/02 03:51:07;;;;;;;8.97;4.23;;;;;;;;;;4462017;32;20321;-56
2022/04/02 03:53:33;;;;;;;5.97;3.83;;;;;;;;;;4460986;32;20410;-56
2022/04/02 03:55:58;;;;;;;9.63;4.13;;;;;;;;;;4448250;32;20280;-57
2022/04/02 03:58:24;;;;;;;10.17;4.30;;;;;;;;;;4451427;32;20423;-56
2022/04/02 04:00:50;;;;;;;19.80;7.77;;;;;;;;;;4450156;32;20287;-57
2022/04/02 04:03:16;;;;;;;8.03;5.97;;;;;;;;;;4454802;32;20743;-56
2022/04/02 04:05:42;;;;;;;8.90;5.47;;;;;;;;;;4445920;32;20404;-57
2022/04/02 04:08:08;;;;;;;8.77;5.10;;;;;;;;;;4458828;32;20303;-57
2022/04/02 04:10:33;;;;;;;9.07;4.97;;;;;;;;;;4447393;32;20663;-57
2022/04/02 04:12:59;;;;;;;9.23;5.27;;;;;;;;;;4456320;32;20537;-56
2022/04/02 04:15:24;;;;;;;10.70;6.47;;;;;;;;;;4446932;32;20272;-57
2022/04/02 04:17:50;;;;;;;13.77;5.87;;;;;;;;;;4455512;32;20704;-57
2022/04/02 04:20:15;;;;;;;8.43;5.43;;;;;;;;;;4450565;32;21023;-57
2022/04/02 04:22:41;;;;;;;18.20;10.83;;;;;;;;;;4449734;32;20381;-57
2022/04/02 04:25:10;;;;;;;15.83;8.90;;;;;;;;;;4455740;32;20278;-57
2022/04/02 04:27:36;;;;;;;5.23;3.73;;;;;;;;;;4445199;32;20241;-57
2022/04/02 04:30:02;;;;;;;7.33;3.83;;;;;;;;;;4444867;32;20404;-57
2022/04/02 04:32:28;;;;;;;8.60;6.37;;;;;;;;;;4449926;32;20338;-58
2022/04/02 04:34:53;;;;;;;12.67;4.20;;;;;;;;;;4453636;32;20346;-57
2022/04/02 04:37:19;;;;;;;9.77;5.50;;;;;;;;;;4458292;32;20291;-57
2022/04/02 04:39:44;;;;;;;7.80;4.47;;;;;;;;;;4453060;32;20291;-57
2022/04/02 04:42:10;;;;;;;7.00;4.40;;;;;;;;;;4451671;32;20567;-56
2022/04/02 04:44:35;;;;;;;11.13;6.70;;;;;;;;;;4455341;32;20859;-56
2022/04/02 04:47:01;;;;;;;15.40;7.43;;;;;;;;;;4457721;32;20356;-57
2022/04/02 04:49:26;;;;;;;11.43;7.00;;;;;;;;;;4459709;32;20692;-57
2022/04/02 04:51:52;;;;;;;13.00;7.60;;;;;;;;;;4458243;32;20633;-56
2022/04/02 04:54:18;;;;;;;15.30;9.30;;;;;;;;;;4458898;32;20628;-57
2022/04/02 04:56:43;;;;;;;19.47;11.67;;;;;;;;;;4447209;32;20389;-57
2022/04/02 04:59:09;;;;;;;24.23;13.23;;;;;;;;;;4447463;32;20617;-56
2022/04/02 05:01:35;;;;;;;19.43;13.07;;;;;;;;;;4452673;32;20254;-56
2022/04/02 05:04:00;;;;;;;22.07;12.87;;;;;;;;;;4450382;32;20968;-56
2022/04/02 05:06:26;;;;;;;24.73;13.97;;;;;;;;;;4449409;32;20326;-56
2022/04/02 05:08:52;;;;;;;24.97;13.13;;;;;;;;;;4452114;32;20366;-56
2022/04/02 05:11:18;;;;;;;22.20;13.20;;;;;;;;;;4448798;32;20556;-56
2022/04/02 05:13:43;;;;;;;35.57;16.67;;;;;;;;;;4456459;32;20228;-57
2022/04/02 05:16:10;;;;;;;28.03;15.50;;;;;;;;;;4460607;32;20306;-57
2022/04/02 05:18:35;;;;;;;33.97;17.27;;;;;;;;;;4450606;32;20403;-57
2022/04/02 05:21:02;;;;;;;28.90;14.70;;;;;;;;;;4455057;32;20715;-58
2022/04/02 05:23:28;;;;;;;29.70;14.43;;;;;;;;;;4444186;32;20283;-58
2022/04/02 05:25:55;;;;;;;25.97;14.77;;;;;;;;;;4444401;32;20767;-56
2022/04/02 05:28:20;;;;;;;21.10;13.13;;;;;;;;;;4452475;32;20278;-55
2022/04/02 05:30:46;;;;;;;24.37;12.47;;;;;;;;;;4452152;32;20308;-54
2022/04/02 05:33:11;;;;;;;56.87;33.93;;;;;;;;;;4455351;32;20311;-55
2022/04/02 05:35:37;;;;;;;39.97;23.47;;;;;;;;;;4462330;32;20263;-55
2022/04/02 05:38:02;;;;;;;27.13;15.67;;;;;;;;;;4449650;32;20576;-55
2022/04/02 05:40:28;;;;;;;21.40;11.23;;;;;;;;;;4463046;32;20772;-56
2022/04/02 05:42:53;;;;;;;15.47;7.50;;;;;;;;;;4454455;32;20292;-55
2022/04/02 05:45:19;;;;;;;14.90;9.27;;;;;;;;;;4448066;32;20464;-55
2022/04/02 05:47:50;;;;;;;18.67;12.37;;;;;;;;;;4457068;32;20228;-56
2022/04/02 05:50:17;;;;;;;14.07;8.73;;;;;;;;;;4457864;32;20238;-55
2022/04/02 05:52:43;;;;;;;9.83;5.93;;;;;;;;;;4450050;32;20682;-55
2022/04/02 05:55:13;;;;;;;6.53;4.60;;;;;;;;;;4455117;32;20287;-56
2022/04/02 05:57:40;;;;;;;4.60;3.03;;;;;;;;;;4457281;32;20661;-57
2022/04/02 06:00:10;;;;;;;4.30;2.57;;;;;;;;;;4450341;32;20721;-57
2022/04/02 06:02:36;;;;;;;4.17;2.73;;;;;;;;;;4455656;32;20255;-56
2022/04/02 06:05:02;;;;;;;5.37;2.47;;;;;;;;;;4454707;32;20220;-56
2022/04/02 06:07:27;;;;;;;4.90;2.53;;;;;;;;;;4453727;32;20366;-55
2022/04/02 06:09:53;;;;;;;8.87;3.60;;;;;;;;;;4455155;32;20279;-55
2022/04/02 06:12:19;;;;;;;10.17;4.80;;;;;;;;;;4454854;32;20220;-55
2022/04/02 06:14:44;;;;;;;14.83;8.23;;;;;;;;;;4461255;32;20417;-57
2022/04/02 06:17:10;;;;;;;20.47;8.63;;;;;;;;;;4454027;32;20291;-56
2022/04/02 06:19:35;;;;;;;16.87;8.57;;;;;;;;;;4457099;32;20343;-55
2022/04/02 06:22:01;;;;;;;28.43;15.00;;;;;;;;;;4458488;32;20674;-56
2022/04/02 06:24:26;;;;;;;14.70;9.67;;;;;;;;;;4457220;32;20747;-56
2022/04/02 06:26:52;;;;;;;12.00;7.53;;;;;;;;;;4454566;32;20258;-55
2022/04/02 06:29:19;;;;;;;10.70;5.83;;;;;;;;;;4453408;32;20247;-56
2022/04/02 06:31:45;;;;;;;14.33;8.03;;;;;;;;;;4455699;32;20316;-55
2022/04/02 06:34:11;;;;;;;14.03;8.27;;;;;;;;;;4463099;32;20228;-55
2022/04/02 06:36:36;;;;;;;11.00;7.33;;;;;;;;;;4457534;32;20342;-56
2022/04/02 06:39:02;;;;;;;8.83;5.67;;;;;;;;;;4455754;32;20271;-56
2022/04/02 06:41:28;;;;;;;14.53;6.33;;;;;;;;;;4452861;32;20636;-56
2022/04/02 06:43:53;;;;;;;10.50;6.80;;;;;;;;;;4450960;32;20476;-56
2022/04/02 06:46:19;;;;;;;8.43;6.33;;;;;;;;;;4451872;32;20283;-56
2022/04/02 06:48:44;;;;;;;13.77;7.10;;;;;;;;;;4446772;32;20357;-57
2022/04/02 06:51:10;;;;;;;14.73;7.33;;;;;;;;;;4444912;32;20327;-57
2022/04/02 06:53:35;;;;;;;7.70;5.30;;;;;;;;;;4446799;32;20263;-56
2022/04/02 06:56:01;;;;;;;7.87;4.57;;;;;;;;;;4444593;32;20679;-56
2022/04/02 06:58:35;;;;;;;10.07;6.17;;;;;;;;;;4449826;32;20585;-57
2022/04/02 07:01:01;;;;;;;8.87;5.70;;;;;;;;;;4453761;32;20612;-58
2022/04/02 07:03:26;;;;;;;12.20;6.60;;;;;;;;;;4457241;32;20482;-57
2022/04/02 07:05:52;;;;;;;17.07;9.73;;;;;;;;;;4454531;32;20357;-55
2022/04/02 07:08:18;;;;;;;11.70;6.00;;;;;;;;;;4455875;32;20236;-56
2022/04/02 07:10:43;;;;;;;11.00;5.37;;;;;;;;;;4452942;32;20275;-57
2022/04/02 07:13:09;;;;;;;12.13;5.10;;;;;;;;;;4446338;32;20303;-55
2022/04/02 07:15:34;;;;;;;9.77;4.30;;;;;;;;;;4458087;32;20267;-55
2022/04/02 07:18:11;;;;;;;17.20;4.67;;;;;;;;;;4448514;32;20591;-55
2022/04/02 07:20:38;;;;;;;11.80;4.70;;;;;;;;;;4446870;32;20372;-56
2022/04/02 07:23:05;;;;;;;9.70;5.00;;;;;;;;;;4453875;32;20255;-55
2022/04/02 07:25:32;;;;;;;6.77;4.27;;;;;;;;;;4451377;32;20931;-56
2022/04/02 07:27:58;;;;;;;7.33;4.03;;;;;;;;;;4458204;32;20632;-55
2022/04/02 07:30:24;;;;;;;6.33;3.80;;;;;;;;;;4457218;32;20306;-56
2022/04/02 07:32:51;;;;;;;5.83;3.93;;;;;;;;;;4454040;32;20312;-56
2022/04/02 07:35:16;;;;;;;12.30;4.33;;;;;;;;;;4452672;32;20757;-58
2022/04/02 07:37:57;;;;;;;10.73;4.30;;;;;;;;;;4445129;32;20236;-58
2022/04/02 07:40:25;;;;;;;6.30;4.20;;;;;;;;;;4446837;32;20239;-55
2022/04/02 07:43:09;;;;;;;8.93;3.87;;;;;;;;;;4456405;32;20885;-55
2022/04/02 07:45:40;;;;;;;7.40;4.27;;;;;;;;;;4459671;32;20275;-56
2022/04/02 07:48:10;;;;;;;8.10;4.93;;;;;;;;;;4450641;32;20243;-57
2022/04/02 07:50:41;;;;;;;7.90;4.20;;;;;;;;;;4457281;32;20254;-58
2022/04/02 07:53:11;;;;;;;3.70;2.50;;;;;;;;;;4445074;32;20710;-56
2022/04/02 07:55:41;;;;;;;6.43;3.33;;;;;;;;;;4453974;32;20250;-56
2022/04/02 07:58:11;;;;;;;9.70;3.17;;;;;;;;;;4446987;32;20330;-55
2022/04/02 08:00:39;;;;;;;4.80;2.50;;;;;;;;;;4452244;32;20757;-56
2022/04/02 08:03:08;;;;;;;6.57;2.30;;;;;;;;;;4455593;32;20321;-56
2022/04/02 08:05:34;;;;;;;4.65;2.03;;;;;;;;;;4449200;32;20298;-56
2022/04/02 08:08:01;;;;;;;6.50;2.93;;;;;;;;;;4444788;32;20240;-56
2022/04/02 08:10:28;;;;;;;4.28;1.87;;;;;;;;;;4458617;32;20390;-57
2022/04/02 08:12:55;;;;;;;5.63;2.13;;;;;;;;;;4449640;32;20233;-56
2022/04/02 08:15:22;;;;;;;7.43;1.73;;;;;;;;;;4450786;32;20413;-56
2022/04/02 08:17:54;;;;;;;7.37;2.60;;;;;;;;;;4447000;32;20355;-57
2022/04/02 08:20:20;;;;;;;2.33;1.37;;;;;;;;;;4454256;32;20227;-56
2022/04/02 08:22:46;;;;;;;2.90;1.37;;;;;;;;;;4458121;32;20447;-55
2022/04/02 08:25:13;;;;;;;9.02;1.10;;;;;;;;;;4449006;32;20383;-56
2022/04/02 08:28:06;;;;;;;4.85;1.50;;;;;;;;;;4452488;32;20340;-55
2022/04/02 08:30:33;;;;;;;7.97;1.17;;;;;;;;;;4450780;32;20776;-56
2022/04/02 08:32:59;;;;;;;2.20;0.98;;;;;;;;;;4460805;32;20730;-56
2022/04/02 08:35:41;;;;;;;4.00;1.00;;;;;;;;;;4456959;32;20320;-57
2022/04/02 08:38:13;;;;;;;1.87;1.00;;;;;;;;;;4451564;32;20375;-56
2022/04/02 08:41:14;;;;;;;3.05;1.23;;;;;;;;;;4453905;32;20306;-55
2022/04/02 08:43:45;;;;;;;1.40;0.80;;;;;;;;;;4449117;32;20254;-56
2022/04/02 08:46:34;;;;;;;3.03;1.33;;;;;;;;;;4458480;32;20278;-56
2022/04/02 08:49:22;;;;;;;2.40;0.95;;;;;;;;;;4452472;32;20251;-56
2022/04/02 08:52:04;;;;;;;3.78;1.48;;;;;;;;;;4450560;32;20564;-54
2022/04/02 08:54:56;;;;;;;2.42;1.00;;;;;;;;;;4453262;32;20308;-56
2022/04/02 08:57:53;;;;;;;3.35;1.42;;;;;;;;;;4455990;32;20673;-56
2022/04/02 09:00:24;;;;;;;2.10;1.20;;;;;;;;;;4434381;32;20241;-56
2022/04/02 09:03:27;;;;;;;1.85;0.93;;;;;;;;;;4449064;32;20664;-56
2022/04/02 09:06:20;;;;;;;2.37;0.98;;;;;;;;;;4450152;32;20235;-56
2022/04/02 09:09:14;;;;;;;3.62;1.23;;;;;;;;;;4458154;32;20363;-56
2022/04/02 09:12:22;;;;;;;3.62;0.85;;;;;;;;;;4459771;32;20228;-56
2022/04/02 09:14:56;;;;;;;1.83;1.17;;;;;;;;;;4451341;32;20509;-57
2022/04/02 09:17:36;;;;;;;2.05;1.17;;;;;;;;;;4460147;32;20306;-56
2022/04/02 09:20:40;;;;;;;2.33;0.73;;;;;;;;;;4462582;32;20283;-55
2022/04/02 09:23:10;;;;;;;2.75;1.33;;;;;;;;;;4424542;32;20344;-56
2022/04/02 09:26:13;;;;;;;1.55;1.12;;;;;;;;;;4457774;32;20913;-56
2022/04/02 09:29:06;;;;;;;1.33;1.02;;;;;;;;;;4453001;32;20224;-56
2022/04/02 09:31:53;;;;;;;3.17;1.00;;;;;;;;;;4458667;32;20389;-55
2022/04/02 09:34:40;;;;;;;1.90;0.95;;;;;;;;;;4452917;32;20589;-56
2022/04/02 09:37:32;;;;;;;1.00;0.90;;;;;;;;;;4453091;32;20334;-55
2022/04/02 09:40:04;;;;;;;7.45;1.15;;;;;;;;;;4458163;32;20216;-55
2022/04/02 09:42:41;;;;;;;2.72;1.20;;;;;;;;;;4456727;32;20649;-57
2022/04/02 09:45:09;;;;;;;2.25;0.98;;;;;;;;;;4459580;32;20426;-55
2022/04/02 09:47:53;;;;;;;7.43;1.63;;;;;;;;;;4457012;32;20223;-56
2022/04/02 09:50:24;;;;;;;2.10;1.12;;;;;;;;;;4459480;32;20242;-56
2022/04/02 09:53:01;;;;;;;2.03;1.12;;;;;;;;;;4463224;32;20216;-55
2022/04/02 09:55:29;;;;;;;1.67;0.93;;;;;;;;;;4448549;32;20622;-55
2022/04/02 09:58:03;;;;;;;1.20;1.05;;;;;;;;;;4452495;32;20383;-55
2022/04/02 10:00:46;;;;;;;0.82;0.82;;;;;;;;;;4456021;32;20265;-54
2022/04/02 10:03:27;;;;;;;2.00;1.13;;;;;;;;;;4457954;32;20767;-55
2022/04/02 10:06:08;;;;;;;0.95;0.90;;;;;;;;;;4451261;32;20262;-55
2022/04/02 10:08:39;;;;;;;5.00;1.58;;;;;;;;;;4456283;32;20653;-55
2022/04/02 10:11:06;;;;;;;1.10;0.82;;;;;;;;;;4462959;32;20722;-56
2022/04/02 10:13:35;;;;;;;3.15;1.35;;;;;;;;;;4449436;32;20319;-56
2022/04/02 10:16:03;;;;;;;1.98;1.00;;;;;;;;;;4450810;32;20268;-56
2022/04/02 10:18:34;;;;;;;2.58;1.67;;;;;;;;;;4447809;32;20232;-55
2022/04/02 10:21:05;;;;;;;5.80;1.90;;;;;;;;;;4458949;32;20252;-55
2022/04/02 10:23:35;;;;;;;11.77;1.90;;;;;;;;;;4456008;32;20254;-56
2022/04/02 10:26:15;;;;;;;13.87;2.07;;;;;;;;;;4453386;32;20709;-56
2022/04/02 10:28:55;;;;;;;7.47;2.77;;;;;;;;;;4451577;32;20750;-55
2022/04/02 10:31:54;;;;;;;2.73;1.50;;;;;;;;;;4454172;32;20287;-55
2022/04/02 10:34:53;;;;;;;3.43;1.80;;;;;;;;;;4454654;32;20259;-56
2022/04/02 10:37:21;;;;;;;3.85;1.70;;;;;;;;;;4457646;32;20280;-55
2022/04/02 10:39:57;;;;;;;5.07;2.70;;;;;;;;;;4456007;32;20359;-55
2022/04/02 10:42:31;;;;;;;5.33;2.77;;;;;;;;;;4450851;32;20269;-56
2022/04/02 10:44:59;;;;;;;3.50;2.45;;;;;;;;;;4456196;32;20332;-55
2022/04/02 10:47:28;;;;;;;4.87;2.17;;;;;;;;;;4453749;32;20433;-55
2022/04/02 10:50:01;;;;;;;6.00;2.12;;;;;;;;;;4453687;32;20224;-54
2022/04/02 10:52:27;;;;;;;8.10;2.63;;;;;;;;;;4458079;32;20295;-54
2022/04/02 10:54:52;;;;;;;4.53;2.28;;;;;;;;;;4451864;32;20275;-55
2022/04/02 10:57:18;;;;;;;4.40;1.60;;;;;;;;;;4452292;32;20212;-54
2022/04/02 10:59:50;;;;;;;1.40;1.00;;;;;;;;;;4455259;32;20275;-56
2022/04/02 11:02:22;;;;;;;2.30;1.10;;;;;;;;;;4462492;32;20250;-55
2022/04/02 11:05:05;;;;;;;1.70;1.15;;;;;;;;;;4447461;32;20216;-55
2022/04/02 11:07:34;;;;;;;2.25;0.80;;;;;;;;;;4451463;32;20220;-55
2022/04/02 11:10:00;;;;;;;5.10;1.10;;;;;;;;;;4456848;32;20224;-56
2022/04/02 11:12:33;;;;;;;1.03;0.93;;;;;;;;;;4448893;32;20235;-55
2022/04/02 11:15:23;;;;;;;3.33;1.30;;;;;;;;;;4460043;32;20211;-55
2022/04/02 11:17:52;;;;;;;3.37;1.67;;;;;;;;;;4454769;32;20296;-57
2022/04/02 11:20:20;;;;;;;3.40;1.67;;;;;;;;;;4459121;32;20240;-55
2022/04/02 11:22:51;;;;;;;3.10;1.50;;;;;;;;;;4459344;32;20565;-55
2022/04/02 11:25:34;;;;;;;1.33;0.95;;;;;;;;;;4454588;32;20329;-54
2022/04/02 11:28:08;;;;;;;1.85;1.25;;;;;;;;;;4454622;32;20606;-55
2022/04/02 11:30:35;;;;;;;2.47;0.80;;;;;;;;;;4452729;32;20572;-55
2022/04/02 11:33:06;;;;;;;2.12;0.90;;;;;;;;;;4452067;32;20333;-55
2022/04/02 11:35:40;;;;;;;1.77;1.17;;;;;;;;;;4452112;32;20306;-55
2022/04/02 11:38:17;;;;;;;3.28;1.15;;;;;;;;;;4449217;32;20287;-54
2022/04/02 11:40:52;;;;;;;0.80;0.75;;;;;;;;;;4454271;32;20216;-56
2022/04/02 11:43:18;;;;;;;1.60;1.17;;;;;;;;;;4449313;32;20399;-56
2022/04/02 11:45:46;;;;;;;1.30;1.20;;;;;;;;;;4458431;32;20350;-56
2022/04/02 11:48:15;;;;;;;0.68;0.68;;;;;;;;;;4458459;32;20345;-56
2022/04/02 11:50:43;;;;;;;2.30;0.70;;;;;;;;;;4461731;32;20350;-55
2022/04/02 11:53:10;;;;;;;1.30;0.82;;;;;;;;;;4457338;32;20224;-56
2022/04/02 11:55:37;;;;;;;2.63;1.20;;;;;;;;;;4445504;32;20213;-56
2022/04/02 11:58:08;;;;;;;1.90;1.30;;;;;;;;;;4455232;32;20299;-56
2022/04/02 12:00:37;;;;;;;1.75;1.17;;;;;;;;;;4449876;32;20252;-57
2022/04/02 12:03:06;;;;;;;1.45;0.68;;;;;;;;;;4454537;32;20233;-56
2022/04/02 12:05:41;;;;;;;2.28;1.00;;;;;;;;;;4452734;32;20345;-55
2022/04/02 12:08:07;;;;;;;1.33;0.93;;;;;;;;;;4454026;32;20331;-55
2022/04/02 12:10:36;;;;;;;2.70;1.30;;;;;;;;;;4447644;32;20694;-56
2022/04/02 12:13:07;;;;;;;1.42;1.08;;;;;;;;;;4454027;32;21076;-55
2022/04/02 12:15:32;;;;;;;4.20;1.95;;;;;;;;;;4449537;32;20227;-55
2022/04/02 12:18:09;;;;;;;2.60;1.87;;;;;;;;;;4455891;32;20224;-55
2022/04/02 12:20:39;;;;;;;2.70;1.55;;;;;;;;;;4461097;32;20307;-56
2022/04/02 12:23:12;;;;;;;5.22;1.70;;;;;;;;;;4458923;32;20322;-55
2022/04/02 12:25:46;;;;;;;1.77;0.85;;;;;;;;;;4449607;32;20216;-55
2022/04/02 12:28:18;;;;;;;2.03;1.00;;;;;;;;;;4454181;32;20435;-56
2022/04/02 12:30:48;;;;;;;1.10;0.75;;;;;;;;;;4458765;32;20200;-56
2022/04/02 12:33:22;;;;;;;4.15;1.10;;;;;;;;;;4457126;32;20312;-55
2022/04/02 12:36:07;;;;;;;1.15;0.90;;;;;;;;;;4455111;32;20332;-56
2022/04/02 12:38:35;;;;;;;2.10;1.00;;;;;;;;;;4450927;32;20216;-56
2022/04/02 12:41:04;;;;;;;1.98;0.88;;;;;;;;;;4454112;32;20200;-55
2022/04/02 12:43:38;;;;;;;1.83;0.90;;;;;;;;;;4451629;32;20294;-56
2022/04/02 12:46:04;;;;;;;1.37;1.00;;;;;;;;;;4455499;32;20279;-56
2022/04/02 12:48:45;;;;;;;1.25;0.90;;;;;;;;;;4451989;32;20294;-56
2022/04/02 12:51:15;;;;;;;1.30;1.10;;;;;;;;;;4450002;32;20676;-54
2022/04/02 12:53:43;;;;;;;1.90;0.90;;;;;;;;;;4449137;32;20554;-54
2022/04/02 12:56:25;;;;;;;0.75;0.75;;;;;;;;;;4452416;32;20216;-55
2022/04/02 12:58:52;;;;;;;2.42;1.00;;;;;;;;;;4449227;32;20535;-56
2022/04/02 13:01:33;;;;;;;5.72;1.20;;;;;;;;;;4446977;32;20288;-56
2022/04/02 13:04:02;;;;;;;1.37;0.80;;;;;;;;;;4454520;32;20259;-55
2022/04/02 13:06:29;;;;;;;10.90;1.30;;;;;;;;;;4450299;32;20734;-55
2022/04/02 13:09:05;;;;;;;1.75;0.95;;;;;;;;;;4454238;32;20362;-55
2022/04/02 13:11:52;;;;;;;1.90;0.90;;;;;;;;;;4449413;32;20192;-56
2022/04/02 13:14:24;;;;;;;1.37;1.05;;;;;;;;;;4454925;32;20217;-55
2022/04/02 13:16:55;;;;;;;3.25;1.60;;;;;;;;;;4451818;32;20239;-55
2022/04/02 13:22:13;;;;;;;4.60;0.80;;;;;;;;;;4455664;32;20383;-55
2022/04/02 13:25:00;;;;;;;2.37;1.35;;;;;;;;;;4456662;32;20455;-54
2022/04/02 13:27:25;;;;;;;1.40;0.70;;;;;;;;;;4450764;32;20262;-55
2022/04/02 13:30:13;;;;;;;2.03;1.02;;;;;;;;;;4450150;32;20760;-55
2022/04/02 13:32:47;;;;;;;4.00;2.60;;;;;;;;;;4446919;32;20696;-55
2022/04/02 13:35:19;;;;;;;1.65;1.00;;;;;;;;;;4452801;32;20370;-58
2022/04/02 13:38:09;;;;;;;3.40;1.52;;;;;;;;;;4444106;32;20307;-56
2022/04/02 13:40:37;;;;;;;2.20;1.37;;;;;;;;;;4446397;32;20721;-56
2022/04/02 13:43:08;;;;;;;2.03;0.90;;;;;;;;;;4447932;32;20293;-56
2022/04/02 13:45:40;;;;;;;1.85;1.40;;;;;;;;;;4449922;32;20234;-57
2022/04/02 13:48:08;;;;;;;1.05;0.93;;;;;;;;;;4457634;32;20286;-56
2022/04/02 13:50:39;;;;;;;2.78;1.35;;;;;;;;;;4459613;32;20224;-56
2022/04/02 13:53:09;;;;;;;1.37;0.90;;;;;;;;;;4457933;32;20738;-56
2022/04/02 13:55:37;;;;;;;1.35;0.90;;;;;;;;;;4458631;32;20307;-56
2022/04/02 13:58:07;;;;;;;0.65;0.65;;;;;;;;;;4451878;32;20212;-57
2022/04/02 14:00:42;;;;;;;3.85;0.98;;;;;;;;;;4454302;32;20234;-56
2022/04/02 14:03:09;;;;;;;3.12;1.48;;;;;;;;;;4458255;32;20596;-56
2022/04/02 14:05:40;;;;;;;3.30;1.83;;;;;;;;;;4454946;32;20354;-56
2022/04/02 14:08:11;;;;;;;3.33;1.77;;;;;;;;;;4452470;32;20354;-55
2022/04/02 14:10:37;;;;;;;2.50;1.58;;;;;;;;;;4457508;32;20291;-55
2022/04/02 14:13:11;;;;;;;1.83;1.00;;;;;;;;;;4455553;32;20252;-55
2022/04/02 14:15:54;;;;;;;3.08;1.10;;;;;;;;;;4456301;32;21148;-54
2022/04/02 14:18:44;;;;;;;2.05;1.70;;;;;;;;;;4449120;32;20363;-54
2022/04/02 14:21:18;;;;;;;6.22;1.80;;;;;;;;;;4453080;32;20280;-54
2022/04/02 14:23:46;;;;;;;5.18;2.00;;;;;;;;;;4449773;32;20287;-54
2022/04/02 14:26:34;;;;;;;7.60;1.50;;;;;;;;;;4445805;32;20318;-55
2022/04/02 14:29:27;;;;;;;3.75;1.70;;;;;;;;;;4447262;32;20224;-55
2022/04/02 14:32:31;;;;;;;4.12;2.15;;;;;;;;;;4449520;32;20295;-55
2022/04/02 14:35:14;;;;;;;2.17;1.58;;;;;;;;;;4427164;32;20333;-56
2022/04/02 14:37:49;;;;;;;5.80;1.60;;;;;;;;;;4445485;32;20320;-56
2022/04/02 14:40:41;;;;;;;2.53;1.80;;;;;;;;;;4453908;32;20867;-54
2022/04/02 14:43:29;;;;;;;3.30;1.55;;;;;;;;;;4452626;32;20303;-56
2022/04/02 14:46:15;;;;;;;4.78;1.52;;;;;;;;;;4450293;32;20208;-56
2022/04/02 14:48:57;;;;;;;2.80;1.62;;;;;;;;;;4455289;32;20311;-56
2022/04/02 14:52:04;;;;;;;7.65;1.67;;;;;;;;;;4448211;32;20314;-56
2022/04/02 14:54:44;;;;;;;4.60;2.60;;;;;;;;;;4429672;32;20673;-55
2022/04/02 14:58:00;;;;;;;5.12;2.95;;;;;;;;;;4450822;32;20220;-55
2022/04/02 15:01:16;;;;;;;7.90;2.05;;;;;;;;;;4450489;32;20204;-55
2022/04/02 15:03:57;;;;;;;3.58;1.60;;;;;;;;;;4427016;32;20422;-56
2022/04/02 15:07:01;;;;;;;2.22;1.30;;;;;;;;;;4449909;32;20295;-56
2022/04/02 15:09:51;;;;;;;1.95;1.55;;;;;;;;;;4450107;32;20706;-55